TimeMDT,TemperatureF,Dew PointF,Humidity,Sea Level PressureIn,VisibilityMPH,Wind Direction,Wind SpeedMPH,Gust SpeedMPH,PrecipitationIn,Events,Conditions,WindDirDegrees,DateUTC
12:53 AM,53.1,48.9,86,29.81,10.0,Calm,Calm,-,N/A,,Scattered Clouds,0,2013-09-17 06:53:00
1:53 AM,50.0,46.9,89,29.81,10.0,SW,3.5,-,N/A,,Clear,220,2013-09-17 07:53:00
2:53 AM,51.1,44.1,77,29.78,10.0,WSW,5.8,-,N/A,,Clear,240,2013-09-17 08:53:00
3:53 AM,54.0,43.0,66,29.75,10.0,South,3.5,-,N/A,,Clear,190,2013-09-17 09:53:00
4:53 AM,48.0,41.0,77,29.76,10.0,SSW,8.1,-,N/A,,Clear,200,2013-09-17 10:53:00
5:53 AM,48.9,42.1,77,29.77,10.0,SW,3.5,-,N/A,,Clear,220,2013-09-17 11:53:00
6:53 AM,48.9,41.0,74,29.77,10.0,SW,8.1,-,N/A,,Scattered Clouds,220,2013-09-17 12:53:00
7:53 AM,50.0,44.1,80,29.76,10.0,East,15.0,-,0.02,Rain,Light Rain,80,2013-09-17 13:53:00
8:12 AM,51.8,44.6,76,29.87,10.0,SSE,8.1,-,0.00,,Overcast,160,2013-09-17 14:12:00
8:53 AM,52.0,45.0,77,29.76,8.0,NNE,8.1,-,0.01,Rain,Light Rain,20,2013-09-17 14:53:00
9:53 AM,50.0,46.0,86,29.81,10.0,East,10.4,-,0.12,Rain,Light Rain,100,2013-09-17 15:53:00
10:53 AM,53.1,46.9,80,29.77,10.0,NW,5.8,-,0.00,,Overcast,320,2013-09-17 16:53:00
11:53 AM,57.0,48.9,74,29.75,10.0,North,9.2,-,N/A,,Scattered Clouds,10,2013-09-17 17:53:00
12:53 PM,60.1,50.0,69,29.71,10.0,NE,13.8,-,N/A,,Mostly Cloudy,40,2013-09-17 18:53:00
1:53 PM,57.9,50.0,75,29.68,10.0,North,12.7,-,N/A,,Mostly Cloudy,10,2013-09-17 19:53:00
2:43 PM,51.8,46.4,82,29.75,2.5,NNE,10.4,24.2,0.16,Rain,Light Rain,30,2013-09-17 20:43:00
2:50 PM,53.6,46.4,77,29.79,10.0,South,12.7,18.4,0.16,,Mostly Cloudy,190,2013-09-17 20:50:00
2:53 PM,53.1,46.9,80,29.70,10.0,SSE,9.2,18.4,0.16,,Mostly Cloudy,150,2013-09-17 20:53:00
3:53 PM,57.0,48.9,74,29.65,10.0,NNE,11.5,-,N/A,,Partly Cloudy,20,2013-09-17 21:53:00
4:53 PM,54.0,46.9,77,29.67,10.0,North,6.9,-,0.01,Rain,Light Rain,10,2013-09-17 22:53:00
5:53 PM,53.1,50.0,89,29.68,10.0,North,3.5,-,0.01,,Mostly Cloudy,350,2013-09-17 23:53:00
6:53 PM,54.0,48.0,80,29.66,10.0,Calm,Calm,-,0.01,,Scattered Clouds,0,2013-09-18 00:53:00
7:53 PM,51.1,46.0,83,29.66,10.0,East,8.1,-,N/A,,Clear,80,2013-09-18 01:53:00
8:53 PM,50.0,46.0,86,29.68,10.0,NE,5.8,-,N/A,,Clear,50,2013-09-18 02:53:00
9:53 PM,48.9,46.9,93,29.70,10.0,North,3.5,-,0.00,Rain,Light Rain,360,2013-09-18 03:53:00
10:53 PM,48.0,46.0,93,29.69,10.0,SE,5.8,-,0.00,,Partly Cloudy,140,2013-09-18 04:53:00
11:53 PM,45.0,44.1,97,29.69,10.0,SW,5.8,-,N/A,,Clear,220,2013-09-18 05:53:00